Coushatta — GDF4876 — position and weather

sailwx.info

Track history (hours):
 
Tides and Currents Weather Stations Pressure Air Temp Water Temp Dewpoint Dewpoint Depression Visibility Wind Speed Wind Dir Waves Ship Positions

Coushatta

Last reported at 2018-Mar-01 04:50 UTC. Time now 2018-Apr-25 21:52 UTC.
Position N 29°57' W 092°51'.
Warning: this ship's position is 55 days out of date.

Length 22 m; draft 3 m.

Type: Towing. MMSI: 367456770.

Date/timePositionNaut miles runAvg speedWind from/ knotsBaromVisibWave heightAir tempDewpointWater temp
2018-Mar-01 04:50N 29°57' W 092°51'1 4.2
2018-Mar-01 04:30N 29°57' W 092°53'2 4.2
2018-Mar-01 04:00N 29°56' W 092°55'2 4.1
2018-Mar-01 03:30N 29°56' W 092°57'2 4.1
2018-Mar-01 03:00N 29°56' W 092°60'7 4.1
2018-Mar-01 01:22N 29°56' W 093°07'2 4.4
2018-Mar-01 01:00N 29°56' W 093°09'2 4.2
2018-Mar-01 00:30N 29°58' W 093°11'2 4.4
2018-Mar-01 00:00N 29°59' W 093°13'2 4.2
2018-Feb-28 23:30N 30°01' W 093°14'2 4.1
2018-Feb-28 23:00N 30°02' W 093°16'2 3.8
2018-Feb-28 22:30N 30°04' W 093°16'2 4.1
2018-Feb-28 22:00N 30°06' W 093°18'1 2.0
2018-Feb-28 21:30N 30°06' W 093°19'0 0.0
2018-Feb-28 21:00N 30°06' W 093°19'0 0.0
2018-Feb-28 20:30N 30°06' W 093°19'0 0.0
2018-Feb-28 20:00N 30°06' W 093°19'0 0.0
2018-Feb-28 19:30N 30°06' W 093°19'1 2.4
2018-Feb-28 19:00N 30°05' W 093°20'2 4.4
2018-Feb-28 18:30N 30°04' W 093°22'0 0.3
2018-Feb-28 18:00N 30°04' W 093°22'0 0.0
2018-Feb-28 17:30N 30°04' W 093°22'0 0.0
2018-Feb-28 17:00N 30°04' W 093°22'0 0.0
2018-Feb-28 16:30N 30°04' W 093°22'0 0.0
2018-Feb-28 16:00N 30°04' W 093°22'0 0.0
2018-Feb-28 15:30N 30°04' W 093°22'0 0.0
2018-Feb-28 15:00N 30°04' W 093°22'0 0.1
2018-Feb-28 14:30N 30°04' W 093°22'1 2.3
2018-Feb-28 14:00N 30°04' W 093°23'2 3.3
2018-Feb-28 13:30N 30°04' W 093°25'2 3.7
2018-Feb-28 13:00N 30°04' W 093°27'2 3.2
2018-Feb-28 12:30N 30°04' W 093°29'2 3.6
2018-Feb-28 12:00N 30°04' W 093°31'2 4.1
2018-Feb-28 11:29N 30°04' W 093°34'2 4.2
2018-Feb-28 11:00N 30°04' W 093°36'2 4.7
2018-Feb-28 10:30N 30°04' W 093°39'2 4.8
2018-Feb-28 10:00N 30°04' W 093°42'2 3.7
2018-Feb-28 09:30N 30°03' W 093°44'2 3.4
2018-Feb-28 09:00N 30°01' W 093°45'2 3.5
2018-Feb-28 08:30N 30°00' W 093°46'0 0.6
2018-Feb-28 08:00N 29°60' W 093°46'0 0.1
2018-Feb-28 07:30N 29°60' W 093°46'0 0.1
2018-Feb-28 07:00N 29°60' W 093°46'0 0.2
2018-Feb-28 06:30N 29°60' W 093°46'0 0.2
2018-Feb-28 05:59N 29°60' W 093°46'0 0.1
2018-Feb-28 05:30N 29°60' W 093°46'0 0.0
2018-Feb-28 05:00N 29°60' W 093°46'0 0.0
2018-Feb-28 04:30N 29°60' W 093°46'0 0.0
2018-Feb-28 04:00N 29°60' W 093°46'0 0.0
2018-Feb-28 03:30N 29°60' W 093°46'0 0.0
2018-Feb-28 03:00N 29°60' W 093°46'0 0.0
2018-Feb-28 02:30N 29°60' W 093°46'0 0.0
2018-Feb-28 02:00N 29°60' W 093°46'1 2.3
2018-Feb-28 01:30N 30°01' W 093°45'2 3.8
2018-Feb-28 01:00N 30°02' W 093°44'2 3.9
2018-Feb-28 00:27N 30°03' W 093°42'2 3.3
2018-Feb-28 00:00N 30°04' W 093°40'2 3.1
2018-Feb-27 23:29N 30°04' W 093°38'1 3.0
2018-Feb-27 23:00N 30°04' W 093°37'1 2.1
2018-Feb-27 22:28N 30°04' W 093°35'2 3.4
2018-Feb-27 22:00N 30°04' W 093°34'2 3.6
2018-Feb-27 21:30N 30°04' W 093°32'2 3.7
2018-Feb-27 21:00N 30°04' W 093°29'1 1.8
2018-Feb-27 20:30N 30°04' W 093°28'2 3.7
2018-Feb-27 20:00N 30°04' W 093°26'2 3.6
2018-Feb-27 19:30N 30°04' W 093°24'2 3.2
2018-Feb-27 19:00N 30°04' W 093°22'1 2.3
2018-Feb-27 18:29N 30°04' W 093°21'1 2.2
2018-Feb-27 18:00N 30°05' W 093°20'1 2.8
2018-Feb-27 17:30N 30°06' W 093°19'1 1.7
2018-Feb-27 17:00N 30°06' W 093°18'0 0.3
2018-Feb-27 16:30N 30°06' W 093°18'1 2.5
2018-Feb-27 16:00N 30°05' W 093°17'2 4.0
2018-Feb-27 15:30N 30°03' W 093°16'2 3.8
2018-Feb-27 15:00N 30°02' W 093°14'2 4.1
2018-Feb-27 14:30N 29°60' W 093°13'2 4.3
2018-Feb-27 14:00N 29°58' W 093°12'2 4.1
2018-Feb-27 13:30N 29°57' W 093°10'2 3.6
2018-Feb-27 13:00N 29°56' W 093°08'2 4.1
2018-Feb-27 12:30N 29°56' W 093°06'2 4.0
2018-Feb-27 12:00N 29°56' W 093°03'36 3.5
2018-Feb-27 01:54N 29°52' W 092°23'1 3.5
2018-Feb-27 01:29N 29°51' W 092°22'2 3.3
2018-Feb-27 01:00N 29°51' W 092°20'1 2.9
2018-Feb-27 00:30N 29°50' W 092°18'2 3.5
2018-Feb-27 00:00N 29°49' W 092°17'2 3.8
2018-Feb-26 23:30N 29°48' W 092°15'2 3.7
2018-Feb-26 23:00N 29°47' W 092°13'2 4.4
2018-Feb-26 22:30N 29°47' W 092°11'2 3.7
2018-Feb-26 22:00N 29°47' W 092°09'2 3.7
2018-Feb-26 21:30N 29°48' W 092°07'2 3.6
2018-Feb-26 21:00N 29°48' W 092°05'2 3.7
2018-Feb-26 20:30N 29°49' W 092°03'2 3.8
2018-Feb-26 20:00N 29°50' W 092°01'2 3.6
2018-Feb-26 19:29N 29°50' W 091°59'  
2018-Feb-21 20:03N 29°50' W 091°58'1 3.9
2018-Feb-21 19:52N 29°50' W 091°59'2 3.7
2018-Feb-21 19:20N 29°49' W 092°01'1 3.9
2018-Feb-21 19:00N 29°49' W 092°02'2 4.1
2018-Feb-21 18:27N 29°48' W 092°05'2 3.8
2018-Feb-21 18:00N 29°48' W 092°07'2 3.8
2018-Feb-21 17:30N 29°47' W 092°09'2 3.3
2018-Feb-21 17:00N 29°47' W 092°11'1 1.7
2018-Feb-21 16:30N 29°47' W 092°11'1 1.8
2018-Feb-21 16:00N 29°47' W 092°12'1 1.0
2018-Feb-21 15:30N 29°47' W 092°13'1 2.0
2018-Feb-21 15:00N 29°48' W 092°14'1 2.9
2018-Feb-21 14:30N 29°48' W 092°16'2 3.3
2018-Feb-21 14:00N 29°49' W 092°17'1 2.7
2018-Feb-21 13:30N 29°50' W 092°18'1 2.5
2018-Feb-21 13:00N 29°50' W 092°20'2 3.3
2018-Feb-21 12:30N 29°51' W 092°21'40 2.9
2018-Feb-20 22:46N 29°56' W 093°07'1 2.8
2018-Feb-20 22:22N 29°56' W 093°08'1 2.7
2018-Feb-20 22:00N 29°56' W 093°10'1 2.8
2018-Feb-20 21:30N 29°57' W 093°11'1 2.7
2018-Feb-20 21:00N 29°58' W 093°12'1 2.7
2018-Feb-20 20:30N 29°59' W 093°13'1 2.7
2018-Feb-20 20:00N 30°00' W 093°14'1 2.8
2018-Feb-20 19:30N 30°02' W 093°14'1 3.0
2018-Feb-20 19:00N 30°03' W 093°16'1 2.8
2018-Feb-20 18:30N 30°04' W 093°16'2 3.2
2018-Feb-20 18:00N 30°05' W 093°17'1 1.0
2018-Feb-20 17:30N 30°05' W 093°18'1 1.8
2018-Feb-20 17:00N 30°06' W 093°19'1 1.1
2018-Feb-20 16:30N 30°06' W 093°19'0 0.1
2018-Feb-20 16:00N 30°06' W 093°19'0 0.1
2018-Feb-20 15:30N 30°06' W 093°19'0 0.0
2018-Feb-20 15:00N 30°06' W 093°19'0 0.0
2018-Feb-20 14:30N 30°06' W 093°19'0 0.0
2018-Feb-20 14:00N 30°06' W 093°19'0 0.0
2018-Feb-20 13:30N 30°06' W 093°19'1 1.7
2018-Feb-20 13:00N 30°05' W 093°20'1 2.7
2018-Feb-20 12:30N 30°04' W 093°21'1 2.2
2018-Feb-20 12:00N 30°04' W 093°22'0 0.5
2018-Feb-20 11:26N 30°04' W 093°22'0 0.2
2018-Feb-20 11:00N 30°04' W 093°22'0 0.2
2018-Feb-20 10:30N 30°04' W 093°22'0 0.0
2018-Feb-20 10:00N 30°04' W 093°22'0 0.0
2018-Feb-20 09:30N 30°04' W 093°22'0 0.1
2018-Feb-20 09:00N 30°04' W 093°22'0 0.0
2018-Feb-20 08:30N 30°04' W 093°22'0 0.0
2018-Feb-20 07:46N 30°04' W 093°22'0 0.0
2018-Feb-20 07:30N 30°04' W 093°22'0 0.1
2018-Feb-20 06:58N 30°04' W 093°22'0 0.0
2018-Feb-20 06:30N 30°04' W 093°22'0 0.0
2018-Feb-20 06:00N 30°04' W 093°22'0 0.0
2018-Feb-20 05:30N 30°04' W 093°22'0 0.1
2018-Feb-20 05:00N 30°04' W 093°22'0 0.1
2018-Feb-20 04:28N 30°04' W 093°22'0 0.1
2018-Feb-20 04:00N 30°04' W 093°22'0 0.4
2018-Feb-20 03:30N 30°04' W 093°22'2 4.0
2018-Feb-20 03:00N 30°04' W 093°25'2 4.5
2018-Feb-20 02:30N 30°04' W 093°27'2 5.0
2018-Feb-20 02:00N 30°04' W 093°30'3 5.0
2018-Feb-20 01:26N 30°04' W 093°33'2 5.1
2018-Feb-20 00:59N 30°04' W 093°36'3 5.4
2018-Feb-20 00:28N 30°04' W 093°39'3 5.7
2018-Feb-20 00:00N 30°03' W 093°42'3 5.3
2018-Feb-19 23:30N 30°01' W 093°44'3 5.8
2018-Feb-19 22:59N 29°60' W 093°47'2 5.1
2018-Feb-19 22:30N 29°59' W 093°50'2 4.5
2018-Feb-19 22:00N 29°57' W 093°52'2 4.8
2018-Feb-19 21:30N 29°55' W 093°53'2 4.9
2018-Feb-19 21:00N 29°53' W 093°55'2 4.8
2018-Feb-19 20:30N 29°51' W 093°57'2 4.9
2018-Feb-19 20:00N 29°49' W 093°58'1 2.4
2018-Feb-19 19:30N 29°49' W 093°59'1 2.6
2018-Feb-19 19:00N 29°48' W 094°00'2 4.7
2018-Feb-19 18:30N 29°46' W 094°02'3 5.6
2018-Feb-19 18:00N 29°45' W 094°05'3 5.7
2018-Feb-19 17:30N 29°43' W 094°08'2 4.5
2018-Feb-19 17:00N 29°41' W 094°10'2 5.1
2018-Feb-19 16:30N 29°41' W 094°12'3 5.2
2018-Feb-19 16:00N 29°39' W 094°15'3 5.1
2018-Feb-19 15:22N 29°38' W 094°18'2 5.0
2018-Feb-19 15:00N 29°37' W 094°20'2 4.5
2018-Feb-19 14:27N 29°36' W 094°23'2 4.0
2018-Feb-19 13:57N 29°35' W 094°25'4 3.1
2018-Feb-19 12:46N 29°33' W 094°28'1 3.5
2018-Feb-19 12:30N 29°32' W 094°29'4 4.1
2018-Feb-19 11:32N 29°30' W 094°33'0 1.1
2018-Feb-19 11:12N 29°30' W 094°33'0 0.1
2018-Feb-19 10:53N 29°30' W 094°33'0 0.1
2018-Feb-19 10:30N 29°30' W 094°33'1 1.1
2018-Feb-19 10:00N 29°30' W 094°34'2 3.5
2018-Feb-19 09:30N 29°29' W 094°35'1 1.0
2018-Feb-19 09:00N 29°29' W 094°36'0 0.0
2018-Feb-19 08:30N 29°29' W 094°36'0 0.0
2018-Feb-19 08:00N 29°29' W 094°36'0 0.0
2018-Feb-19 07:30N 29°29' W 094°36'0 0.0
2018-Feb-19 06:59N 29°29' W 094°36'0 0.0
2018-Feb-19 06:30N 29°29' W 094°36'0 0.0
2018-Feb-19 06:00N 29°29' W 094°36'0 0.0
2018-Feb-19 05:30N 29°29' W 094°36'0 0.0
2018-Feb-19 04:59N 29°29' W 094°36'  
Track history (hours):
 
Tides and Currents Weather Stations Pressure Air Temp Water Temp Dewpoint Dewpoint Depression Visibility Wind Speed Wind Dir Waves Ship Positions

Coushatta

Last reported at 2018-Mar-01 04:50 UTC. Time now 2018-Apr-25 21:52 UTC.
Position N 29°57' W 092°51'.
Warning: this ship's position is 55 days out of date.

Length 22 m; draft 3 m.

Type: Towing. MMSI: 367456770.

Date/timePositionNaut miles runAvg speedWind from/ knotsBaromVisibWave heightAir tempDewpointWater temp
2018-Mar-01 04:50N 29°57' W 092°51'1 4.2
2018-Mar-01 04:30N 29°57' W 092°53'2 4.2
2018-Mar-01 04:00N 29°56' W 092°55'2 4.1
2018-Mar-01 03:30N 29°56' W 092°57'2 4.1
2018-Mar-01 03:00N 29°56' W 092°60'7 4.1
2018-Mar-01 01:22N 29°56' W 093°07'2 4.4
2018-Mar-01 01:00N 29°56' W 093°09'2 4.2
2018-Mar-01 00:30N 29°58' W 093°11'2 4.4
2018-Mar-01 00:00N 29°59' W 093°13'2 4.2
2018-Feb-28 23:30N 30°01' W 093°14'2 4.1
2018-Feb-28 23:00N 30°02' W 093°16'2 3.8
2018-Feb-28 22:30N 30°04' W 093°16'2 4.1
2018-Feb-28 22:00N 30°06' W 093°18'1 2.0
2018-Feb-28 21:30N 30°06' W 093°19'0 0.0
2018-Feb-28 21:00N 30°06' W 093°19'0 0.0
2018-Feb-28 20:30N 30°06' W 093°19'0 0.0
2018-Feb-28 20:00N 30°06' W 093°19'0 0.0
2018-Feb-28 19:30N 30°06' W 093°19'1 2.4
2018-Feb-28 19:00N 30°05' W 093°20'2 4.4
2018-Feb-28 18:30N 30°04' W 093°22'0 0.3
2018-Feb-28 18:00N 30°04' W 093°22'0 0.0
2018-Feb-28 17:30N 30°04' W 093°22'0 0.0
2018-Feb-28 17:00N 30°04' W 093°22'0 0.0
2018-Feb-28 16:30N 30°04' W 093°22'0 0.0
2018-Feb-28 16:00N 30°04' W 093°22'0 0.0
2018-Feb-28 15:30N 30°04' W 093°22'0 0.0
2018-Feb-28 15:00N 30°04' W 093°22'0 0.1
2018-Feb-28 14:30N 30°04' W 093°22'1 2.3
2018-Feb-28 14:00N 30°04' W 093°23'2 3.3
2018-Feb-28 13:30N 30°04' W 093°25'2 3.7
2018-Feb-28 13:00N 30°04' W 093°27'2 3.2
2018-Feb-28 12:30N 30°04' W 093°29'2 3.6
2018-Feb-28 12:00N 30°04' W 093°31'2 4.1
2018-Feb-28 11:29N 30°04' W 093°34'2 4.2
2018-Feb-28 11:00N 30°04' W 093°36'2 4.7
2018-Feb-28 10:30N 30°04' W 093°39'2 4.8
2018-Feb-28 10:00N 30°04' W 093°42'2 3.7
2018-Feb-28 09:30N 30°03' W 093°44'2 3.4
2018-Feb-28 09:00N 30°01' W 093°45'2 3.5
2018-Feb-28 08:30N 30°00' W 093°46'0 0.6
2018-Feb-28 08:00N 29°60' W 093°46'0 0.1
2018-Feb-28 07:30N 29°60' W 093°46'0 0.1
2018-Feb-28 07:00N 29°60' W 093°46'0 0.2
2018-Feb-28 06:30N 29°60' W 093°46'0 0.2
2018-Feb-28 05:59N 29°60' W 093°46'0 0.1
2018-Feb-28 05:30N 29°60' W 093°46'0 0.0
2018-Feb-28 05:00N 29°60' W 093°46'0 0.0
2018-Feb-28 04:30N 29°60' W 093°46'0 0.0
2018-Feb-28 04:00N 29°60' W 093°46'0 0.0
2018-Feb-28 03:30N 29°60' W 093°46'0 0.0
2018-Feb-28 03:00N 29°60' W 093°46'0 0.0
2018-Feb-28 02:30N 29°60' W 093°46'0 0.0
2018-Feb-28 02:00N 29°60' W 093°46'1 2.3
2018-Feb-28 01:30N 30°01' W 093°45'2 3.8
2018-Feb-28 01:00N 30°02' W 093°44'2 3.9
2018-Feb-28 00:27N 30°03' W 093°42'2 3.3
2018-Feb-28 00:00N 30°04' W 093°40'2 3.1
2018-Feb-27 23:29N 30°04' W 093°38'1 3.0
2018-Feb-27 23:00N 30°04' W 093°37'1 2.1
2018-Feb-27 22:28N 30°04' W 093°35'2 3.4
2018-Feb-27 22:00N 30°04' W 093°34'2 3.6
2018-Feb-27 21:30N 30°04' W 093°32'2 3.7
2018-Feb-27 21:00N 30°04' W 093°29'1 1.8
2018-Feb-27 20:30N 30°04' W 093°28'2 3.7
2018-Feb-27 20:00N 30°04' W 093°26'2 3.6
2018-Feb-27 19:30N 30°04' W 093°24'2 3.2
2018-Feb-27 19:00N 30°04' W 093°22'1 2.3
2018-Feb-27 18:29N 30°04' W 093°21'1 2.2
2018-Feb-27 18:00N 30°05' W 093°20'1 2.8
2018-Feb-27 17:30N 30°06' W 093°19'1 1.7
2018-Feb-27 17:00N 30°06' W 093°18'0 0.3
2018-Feb-27 16:30N 30°06' W 093°18'1 2.5
2018-Feb-27 16:00N 30°05' W 093°17'2 4.0
2018-Feb-27 15:30N 30°03' W 093°16'2 3.8
2018-Feb-27 15:00N 30°02' W 093°14'2 4.1
2018-Feb-27 14:30N 29°60' W 093°13'2 4.3
2018-Feb-27 14:00N 29°58' W 093°12'2 4.1
2018-Feb-27 13:30N 29°57' W 093°10'2 3.6
2018-Feb-27 13:00N 29°56' W 093°08'2 4.1
2018-Feb-27 12:30N 29°56' W 093°06'2 4.0
2018-Feb-27 12:00N 29°56' W 093°03'36 3.5
2018-Feb-27 01:54N 29°52' W 092°23'1 3.5
2018-Feb-27 01:29N 29°51' W 092°22'2 3.3
2018-Feb-27 01:00N 29°51' W 092°20'1 2.9
2018-Feb-27 00:30N 29°50' W 092°18'2 3.5
2018-Feb-27 00:00N 29°49' W 092°17'2 3.8
2018-Feb-26 23:30N 29°48' W 092°15'2 3.7
2018-Feb-26 23:00N 29°47' W 092°13'2 4.4
2018-Feb-26 22:30N 29°47' W 092°11'2 3.7
2018-Feb-26 22:00N 29°47' W 092°09'2 3.7
2018-Feb-26 21:30N 29°48' W 092°07'2 3.6
2018-Feb-26 21:00N 29°48' W 092°05'2 3.7
2018-Feb-26 20:30N 29°49' W 092°03'2 3.8
2018-Feb-26 20:00N 29°50' W 092°01'2 3.6
2018-Feb-26 19:29N 29°50' W 091°59'  
2018-Feb-21 20:03N 29°50' W 091°58'1 3.9
2018-Feb-21 19:52N 29°50' W 091°59'2 3.7
2018-Feb-21 19:20N 29°49' W 092°01'1 3.9
2018-Feb-21 19:00N 29°49' W 092°02'2 4.1
2018-Feb-21 18:27N 29°48' W 092°05'2 3.8
2018-Feb-21 18:00N 29°48' W 092°07'2 3.8
2018-Feb-21 17:30N 29°47' W 092°09'2 3.3
2018-Feb-21 17:00N 29°47' W 092°11'1 1.7
2018-Feb-21 16:30N 29°47' W 092°11'1 1.8
2018-Feb-21 16:00N 29°47' W 092°12'1 1.0
2018-Feb-21 15:30N 29°47' W 092°13'1 2.0
2018-Feb-21 15:00N 29°48' W 092°14'1 2.9
2018-Feb-21 14:30N 29°48' W 092°16'2 3.3
2018-Feb-21 14:00N 29°49' W 092°17'1 2.7
2018-Feb-21 13:30N 29°50' W 092°18'1 2.5
2018-Feb-21 13:00N 29°50' W 092°20'2 3.3
2018-Feb-21 12:30N 29°51' W 092°21'40 2.9
2018-Feb-20 22:46N 29°56' W 093°07'1 2.8
2018-Feb-20 22:22N 29°56' W 093°08'1 2.7
2018-Feb-20 22:00N 29°56' W 093°10'1 2.8
2018-Feb-20 21:30N 29°57' W 093°11'1 2.7
2018-Feb-20 21:00N 29°58' W 093°12'1 2.7
2018-Feb-20 20:30N 29°59' W 093°13'1 2.7
2018-Feb-20 20:00N 30°00' W 093°14'1 2.8
2018-Feb-20 19:30N 30°02' W 093°14'1 3.0
2018-Feb-20 19:00N 30°03' W 093°16'1 2.8
2018-Feb-20 18:30N 30°04' W 093°16'2 3.2
2018-Feb-20 18:00N 30°05' W 093°17'1 1.0
2018-Feb-20 17:30N 30°05' W 093°18'1 1.8
2018-Feb-20 17:00N 30°06' W 093°19'1 1.1
2018-Feb-20 16:30N 30°06' W 093°19'0 0.1
2018-Feb-20 16:00N 30°06' W 093°19'0 0.1
2018-Feb-20 15:30N 30°06' W 093°19'0 0.0
2018-Feb-20 15:00N 30°06' W 093°19'0 0.0
2018-Feb-20 14:30N 30°06' W 093°19'0 0.0
2018-Feb-20 14:00N 30°06' W 093°19'0 0.0
2018-Feb-20 13:30N 30°06' W 093°19'1 1.7
2018-Feb-20 13:00N 30°05' W 093°20'1 2.7
2018-Feb-20 12:30N 30°04' W 093°21'1 2.2
2018-Feb-20 12:00N 30°04' W 093°22'0 0.5
2018-Feb-20 11:26N 30°04' W 093°22'0 0.2
2018-Feb-20 11:00N 30°04' W 093°22'0 0.2
2018-Feb-20 10:30N 30°04' W 093°22'0 0.0
2018-Feb-20 10:00N 30°04' W 093°22'0 0.0
2018-Feb-20 09:30N 30°04' W 093°22'0 0.1
2018-Feb-20 09:00N 30°04' W 093°22'0 0.0
2018-Feb-20 08:30N 30°04' W 093°22'0 0.0
2018-Feb-20 07:46N 30°04' W 093°22'0 0.0
2018-Feb-20 07:30N 30°04' W 093°22'0 0.1
2018-Feb-20 06:58N 30°04' W 093°22'0 0.0
2018-Feb-20 06:30N 30°04' W 093°22'0 0.0
2018-Feb-20 06:00N 30°04' W 093°22'0 0.0
2018-Feb-20 05:30N 30°04' W 093°22'0 0.1
2018-Feb-20 05:00N 30°04' W 093°22'0 0.1
2018-Feb-20 04:28N 30°04' W 093°22'0 0.1
2018-Feb-20 04:00N 30°04' W 093°22'0 0.4
2018-Feb-20 03:30N 30°04' W 093°22'2 4.0
2018-Feb-20 03:00N 30°04' W 093°25'2 4.5
2018-Feb-20 02:30N 30°04' W 093°27'2 5.0
2018-Feb-20 02:00N 30°04' W 093°30'3 5.0
2018-Feb-20 01:26N 30°04' W 093°33'2 5.1
2018-Feb-20 00:59N 30°04' W 093°36'3 5.4
2018-Feb-20 00:28N 30°04' W 093°39'3 5.7
2018-Feb-20 00:00N 30°03' W 093°42'3 5.3
2018-Feb-19 23:30N 30°01' W 093°44'3 5.8
2018-Feb-19 22:59N 29°60' W 093°47'2 5.1
2018-Feb-19 22:30N 29°59' W 093°50'2 4.5
2018-Feb-19 22:00N 29°57' W 093°52'2 4.8
2018-Feb-19 21:30N 29°55' W 093°53'2 4.9
2018-Feb-19 21:00N 29°53' W 093°55'2 4.8
2018-Feb-19 20:30N 29°51' W 093°57'2 4.9
2018-Feb-19 20:00N 29°49' W 093°58'1 2.4
2018-Feb-19 19:30N 29°49' W 093°59'1 2.6
2018-Feb-19 19:00N 29°48' W 094°00'2 4.7
2018-Feb-19 18:30N 29°46' W 094°02'3 5.6
2018-Feb-19 18:00N 29°45' W 094°05'3 5.7
2018-Feb-19 17:30N 29°43' W 094°08'2 4.5
2018-Feb-19 17:00N 29°41' W 094°10'2 5.1
2018-Feb-19 16:30N 29°41' W 094°12'3 5.2
2018-Feb-19 16:00N 29°39' W 094°15'3 5.1
2018-Feb-19 15:22N 29°38' W 094°18'2 5.0
2018-Feb-19 15:00N 29°37' W 094°20'2 4.5
2018-Feb-19 14:27N 29°36' W 094°23'2 4.0
2018-Feb-19 13:57N 29°35' W 094°25'4 3.1
2018-Feb-19 12:46N 29°33' W 094°28'1 3.5
2018-Feb-19 12:30N 29°32' W 094°29'4 4.1
2018-Feb-19 11:32N 29°30' W 094°33'0 1.1
2018-Feb-19 11:12N 29°30' W 094°33'0 0.1
2018-Feb-19 10:53N 29°30' W 094°33'0 0.1
2018-Feb-19 10:30N 29°30' W 094°33'1 1.1
2018-Feb-19 10:00N 29°30' W 094°34'2 3.5
2018-Feb-19 09:30N 29°29' W 094°35'1 1.0
2018-Feb-19 09:00N 29°29' W 094°36'0 0.0
2018-Feb-19 08:30N 29°29' W 094°36'0 0.0
2018-Feb-19 08:00N 29°29' W 094°36'0 0.0
2018-Feb-19 07:30N 29°29' W 094°36'0 0.0
2018-Feb-19 06:59N 29°29' W 094°36'0 0.0
2018-Feb-19 06:30N 29°29' W 094°36'0 0.0
2018-Feb-19 06:00N 29°29' W 094°36'0 0.0
2018-Feb-19 05:30N 29°29' W 094°36'0 0.0
2018-Feb-19 04:59N 29°29' W 094°36'  

Dump ship's entire track history